Time;durP1;ratioP1;P1;durP2;ratioP2;P2;SDS_P1;SDS_P2;PMS_P1;PMS_P2;Temp;Humidity;BMP_temperature;BMP_pressure;BME280_temperature;BME280_humidity;BME280_pressure;Samples;Min_cycle;Max_cycle;Signal;HPM_P1;HPM_P2
2022/03/04 00:02:18;;;;;;;5.25;4.22;;;4.80;90.30;;;;;;1872761;77;21068;-49
2022/03/04 00:04:48;;;;;;;4.50;3.92;;;4.80;90.40;;;;;;1872777;77;21009;-51
2022/03/04 00:07:17;;;;;;;4.12;3.65;;;4.80;90.30;;;;;;1872830;77;21033;-49
2022/03/04 00:09:46;;;;;;;6.45;4.45;;;4.80;90.20;;;;;;1872735;77;21009;-50
2022/03/04 00:12:16;;;;;;;4.30;3.72;;;4.80;90.20;;;;;;1872812;77;21013;-49
2022/03/04 00:14:45;;;;;;;7.55;4.00;;;4.80;90.20;;;;;;1872766;77;21088;-50
2022/03/04 00:17:14;;;;;;;6.40;4.40;;;4.80;90.20;;;;;;1872848;77;21068;-48
2022/03/04 00:19:44;;;;;;;5.15;3.80;;;4.80;90.40;;;;;;1872732;75;21099;-49
2022/03/04 00:22:15;;;;;;;4.10;3.70;;;4.80;90.30;;;;;;1872790;77;21033;-48
2022/03/04 00:24:45;;;;;;;5.42;3.60;;;4.80;90.30;;;;;;1872829;77;21641;-49
2022/03/04 00:27:15;;;;;;;5.50;4.35;;;4.90;90.30;;;;;;1872701;77;21158;-49
2022/03/04 00:29:44;;;;;;;5.08;3.62;;;4.90;90.30;;;;;;1872689;77;21086;-50
2022/03/04 00:32:14;;;;;;;4.60;3.67;;;4.80;90.30;;;;;;1872823;77;21142;-49
2022/03/04 00:34:43;;;;;;;5.50;3.47;;;4.80;90.40;;;;;;1872747;77;21005;-48
2022/03/04 00:37:13;;;;;;;5.75;4.08;;;4.90;90.30;;;;;;1872828;77;21094;-49
2022/03/04 00:39:42;;;;;;;6.37;4.15;;;4.90;90.30;;;;;;1872735;75;21009;-48
2022/03/04 00:42:11;;;;;;;6.70;3.30;;;4.90;90.30;;;;;;1872803;77;21032;-51
2022/03/04 00:44:41;;;;;;;5.85;4.60;;;4.90;90.10;;;;;;1872689;77;21110;-49
2022/03/04 00:47:10;;;;;;;5.37;4.55;;;4.90;90.30;;;;;;1872736;75;21028;-47
2022/03/04 00:49:40;;;;;;;7.15;4.47;;;4.90;90.30;;;;;;1872798;77;21041;-49
2022/03/04 00:52:09;;;;;;;6.75;4.78;;;4.90;90.40;;;;;;1872935;76;21036;-49
2022/03/04 00:54:38;;;;;;;5.58;3.98;;;4.90;90.30;;;;;;1872747;77;21029;-48
2022/03/04 00:57:08;;;;;;;6.08;4.62;;;5.00;90.30;;;;;;1872680;76;21111;-49
2022/03/04 00:59:38;;;;;;;5.87;5.28;;;5.00;90.30;;;;;;1872826;76;21118;-51
2022/03/04 01:02:07;;;;;;;6.17;4.58;;;5.00;90.30;;;;;;1872815;77;21032;-48
2022/03/04 01:04:36;;;;;;;7.70;4.95;;;5.00;90.30;;;;;;1872825;75;21031;-48
2022/03/04 01:07:06;;;;;;;6.67;5.12;;;5.00;90.10;;;;;;1872842;77;21009;-48
2022/03/04 01:09:35;;;;;;;4.83;4.17;;;5.10;90.30;;;;;;1872795;75;21150;-51
2022/03/04 01:12:05;;;;;;;5.40;4.47;;;5.10;90.30;;;;;;1872941;77;21009;-49
2022/03/04 01:14:35;;;;;;;7.72;5.47;;;5.10;90.40;;;;;;1872728;77;21028;-52
2022/03/04 01:17:04;;;;;;;6.20;4.58;;;5.10;90.30;;;;;;1872819;75;21027;-51
2022/03/04 01:19:34;;;;;;;7.00;4.65;;;5.20;90.40;;;;;;1872799;76;21102;-48
2022/03/04 01:22:03;;;;;;;7.85;5.45;;;5.10;90.30;;;;;;1872868;77;21090;-49
2022/03/04 01:24:32;;;;;;;7.00;5.20;;;5.20;90.20;;;;;;1872808;77;21036;-49
2022/03/04 01:27:02;;;;;;;6.33;4.45;;;5.20;90.20;;;;;;1872880;77;21033;-48
2022/03/04 01:29:31;;;;;;;7.42;5.47;;;5.20;90.30;;;;;;1872809;77;21057;-49
2022/03/04 01:32:01;;;;;;;7.33;4.47;;;5.10;90.30;;;;;;1872849;76;21028;-49
2022/03/04 01:34:30;;;;;;;6.45;4.42;;;5.10;90.40;;;;;;1872780;77;21025;-49
2022/03/04 01:37:00;;;;;;;5.70;5.12;;;5.20;90.50;;;;;;1872919;77;21037;-49
2022/03/04 01:39:29;;;;;;;7.55;5.50;;;5.20;90.60;;;;;;1872893;76;21009;-51
2022/03/04 01:41:58;;;;;;;7.33;5.25;;;5.30;90.50;;;;;;1872876;77;21028;-52
2022/03/04 01:44:29;;;;;;;7.50;5.45;;;5.30;90.40;;;;;;1872790;76;21083;-49
2022/03/04 01:46:58;;;;;;;6.83;5.72;;;5.40;90.60;;;;;;1872724;77;21032;-51
2022/03/04 01:49:27;;;;;;;10.30;6.05;;;5.40;90.70;;;;;;1872873;77;21020;-51
2022/03/04 01:51:57;;;;;;;8.95;5.37;;;5.50;90.70;;;;;;1872836;77;21095;-48
2022/03/04 01:54:26;;;;;;;7.87;5.22;;;5.70;90.70;;;;;;1872866;77;21037;-50
2022/03/04 01:56:56;;;;;;;6.47;5.37;;;5.80;90.70;;;;;;1872900;77;21048;-49
2022/03/04 01:59:25;;;;;;;8.43;5.62;;;5.80;90.60;;;;;;1872732;75;21143;-50
2022/03/04 02:01:55;;;;;;;8.95;5.50;;;5.80;90.40;;;;;;1872853;77;21103;-49
2022/03/04 02:04:25;;;;;;;6.80;4.85;;;5.90;89.60;;;;;;1872757;77;21518;-49
2022/03/04 02:06:55;;;;;;;7.78;5.97;;;5.80;89.80;;;;;;1872813;76;21029;-49
2022/03/04 02:09:24;;;;;;;10.18;5.42;;;5.70;90.20;;;;;;1872805;76;21036;-51
2022/03/04 02:11:54;;;;;;;6.42;4.92;;;5.70;90.20;;;;;;1872887;77;21009;-48
2022/03/04 02:14:23;;;;;;;7.85;5.10;;;5.60;90.00;;;;;;1872867;76;21025;-50
2022/03/04 02:16:54;;;;;;;8.03;5.67;;;5.60;90.00;;;;;;1872776;76;21094;-48
2022/03/04 02:19:23;;;;;;;9.60;5.95;;;5.50;90.20;;;;;;1872833;76;21017;-52
2022/03/04 02:21:55;;;;;;;6.10;4.65;;;5.50;90.20;;;;;;1872880;77;21029;-49
2022/03/04 02:24:26;;;;;;;7.35;5.12;;;5.50;89.10;;;;;;1872876;76;21016;-49
2022/03/04 02:26:58;;;;;;;8.75;5.55;;;5.40;89.40;;;;;;1872770;76;21075;-52
2022/03/04 02:29:28;;;;;;;9.35;5.83;;;5.40;90.00;;;;;;1872921;77;21001;-49
2022/03/04 02:31:58;;;;;;;10.82;6.55;;;5.30;90.10;;;;;;1872763;76;21033;-49
2022/03/04 02:34:28;;;;;;;10.35;6.92;;;5.30;89.70;;;;;;1872887;77;21126;-49
2022/03/04 02:36:58;;;;;;;10.93;7.45;;;5.30;89.20;;;;;;1872844;76;21029;-49
2022/03/04 02:39:27;;;;;;;38.65;20.27;;;5.20;89.70;;;;;;1872781;76;21022;-50
2022/03/04 02:41:56;;;;;;;10.88;7.25;;;5.20;90.00;;;;;;1872778;75;21103;-48
2022/03/04 02:44:25;;;;;;;10.18;6.85;;;5.20;89.40;;;;;;1872774;75;21052;-49
2022/03/04 02:46:55;;;;;;;8.98;6.03;;;5.20;89.10;;;;;;1872871;77;21182;-48
2022/03/04 02:49:24;;;;;;;8.78;5.97;;;5.20;88.70;;;;;;1872839;77;21032;-50
2022/03/04 02:51:54;;;;;;;22.77;14.23;;;5.10;89.30;;;;;;1872939;76;21001;-49
2022/03/04 02:54:23;;;;;;;10.93;7.08;;;5.10;89.00;;;;;;1872779;77;21028;-50
2022/03/04 02:56:53;;;;;;;22.42;15.10;;;5.10;89.20;;;;;;1872880;77;21114;-49
2022/03/04 02:59:22;;;;;;;11.88;8.95;;;5.10;89.90;;;;;;1872883;77;21021;-49
2022/03/04 03:01:51;;;;;;;7.20;5.42;;;5.10;89.60;;;;;;1872797;77;21099;-48
2022/03/04 03:04:20;;;;;;;10.20;6.72;;;5.10;89.60;;;;;;1872740;77;21103;-48
2022/03/04 03:06:52;;;;;;;8.18;6.00;;;5.10;89.40;;;;;;1872886;77;21122;-49
2022/03/04 03:09:20;;;;;;;9.28;5.80;;;5.10;89.10;;;;;;1872799;76;21025;-48
2022/03/04 03:11:50;;;;;;;8.75;6.15;;;5.10;89.30;;;;;;1872798;76;21037;-49
2022/03/04 03:14:19;;;;;;;9.33;5.53;;;5.10;89.30;;;;;;1872773;75;21086;-51
2022/03/04 03:16:49;;;;;;;10.80;6.03;;;5.10;89.50;;;;;;1872935;75;21029;-49
2022/03/04 03:19:18;;;;;;;8.65;6.30;;;5.10;89.80;;;;;;1872847;77;21079;-49
2022/03/04 03:21:47;;;;;;;6.78;5.30;;;5.10;89.80;;;;;;1872934;76;21095;-52
2022/03/04 03:24:17;;;;;;;12.23;6.15;;;5.10;88.80;;;;;;1872839;76;21028;-49
2022/03/04 03:26:46;;;;;;;8.13;5.90;;;5.10;89.30;;;;;;1872919;77;21107;-48
2022/03/04 03:29:15;;;;;;;9.85;5.70;;;5.10;89.30;;;;;;1872685;77;21084;-50
2022/03/04 03:31:45;;;;;;;7.97;6.25;;;5.10;88.80;;;;;;1872848;77;21010;-49
2022/03/04 03:34:14;;;;;;;11.38;6.35;;;5.00;89.10;;;;;;1872846;77;21025;-48
2022/03/04 03:36:43;;;;;;;9.98;6.25;;;5.10;88.70;;;;;;1872846;77;21110;-50
2022/03/04 03:39:13;;;;;;;12.90;6.97;;;5.00;89.20;;;;;;1872713;77;21549;-48
2022/03/04 03:41:42;;;;;;;8.40;6.03;;;5.00;89.00;;;;;;1872869;77;21053;-48
2022/03/04 03:44:12;;;;;;;8.98;7.03;;;5.00;89.20;;;;;;1872784;77;21049;-49
2022/03/04 03:46:41;;;;;;;6.50;4.97;;;5.00;89.50;;;;;;1872804;77;21088;-49
2022/03/04 03:49:11;;;;;;;7.97;5.65;;;5.00;88.90;;;;;;1872725;76;21000;-48
2022/03/04 03:51:40;;;;;;;7.78;5.85;;;5.00;89.20;;;;;;1872966;77;21005;-48
2022/03/04 03:54:09;;;;;;;8.98;5.65;;;5.00;88.80;;;;;;1872770;75;21086;-51
2022/03/04 03:56:39;;;;;;;8.73;6.05;;;4.90;88.80;;;;;;1872791;77;21459;-47
2022/03/04 03:59:08;;;;;;;10.45;6.17;;;4.90;88.80;;;;;;1872723;77;21099;-51
2022/03/04 04:01:38;;;;;;;10.53;5.55;;;4.90;89.10;;;;;;1872808;75;21045;-49
2022/03/04 04:04:12;;;;;;;7.45;5.05;;;4.90;88.80;;;;;;1872795;77;21033;-49
2022/03/04 04:06:39;;;;;;;7.65;4.45;;;4.90;88.20;;;;;;1872317;76;21435;-49
2022/03/04 04:09:09;;;;;;;6.87;5.70;;;4.80;88.30;;;;;;1872720;76;21107;-50
2022/03/04 04:11:39;;;;;;;9.00;6.28;;;4.80;88.00;;;;;;1872834;76;21522;-51
2022/03/04 04:14:10;;;;;;;8.60;5.92;;;4.80;88.10;;;;;;1872696;77;21028;-48
2022/03/04 04:16:39;;;;;;;7.70;4.67;;;4.80;87.90;;;;;;1872685;77;21099;-49
2022/03/04 04:19:08;;;;;;;7.37;5.67;;;4.80;87.70;;;;;;1872754;77;21107;-51
2022/03/04 04:21:38;;;;;;;18.12;14.07;;;4.70;88.40;;;;;;1872714;77;21044;-51
2022/03/04 04:24:07;;;;;;;17.05;12.03;;;4.70;87.80;;;;;;1872739;77;21004;-51
2022/03/04 04:26:37;;;;;;;9.60;7.17;;;4.80;88.20;;;;;;1872785;77;21032;-49
2022/03/04 04:29:06;;;;;;;10.08;7.05;;;4.80;88.30;;;;;;1872743;77;21134;-48
2022/03/04 04:31:36;;;;;;;10.65;6.12;;;4.80;88.60;;;;;;1872689;76;21072;-50
2022/03/04 04:34:06;;;;;;;6.20;5.10;;;4.80;88.40;;;;;;1872832;75;21119;-49
2022/03/04 04:36:35;;;;;;;10.10;6.58;;;4.80;88.60;;;;;;1872872;77;21009;-49
2022/03/04 04:39:05;;;;;;;6.03;5.17;;;4.80;88.20;;;;;;1872762;76;21029;-49
2022/03/04 04:41:34;;;;;;;6.67;5.10;;;4.80;88.40;;;;;;1872868;77;21099;-51
2022/03/04 04:44:03;;;;;;;7.83;5.92;;;4.80;87.60;;;;;;1872863;77;21049;-51
2022/03/04 04:46:33;;;;;;;8.05;5.55;;;4.80;88.40;;;;;;1872822;77;21076;-49
2022/03/04 04:49:02;;;;;;;8.18;6.37;;;4.90;88.70;;;;;;1872839;77;21040;-50
2022/03/04 04:51:32;;;;;;;8.05;5.47;;;4.90;88.90;;;;;;1872937;75;21053;-50
2022/03/04 04:54:01;;;;;;;8.45;6.33;;;4.90;88.00;;;;;;1872939;76;21115;-52
2022/03/04 04:56:31;;;;;;;9.70;6.90;;;4.90;88.50;;;;;;1872884;77;21032;-49
2022/03/04 04:59:00;;;;;;;9.58;6.35;;;4.90;88.10;;;;;;1873003;77;21037;-50
2022/03/04 05:01:30;;;;;;;8.58;5.75;;;4.90;87.90;;;;;;1872925;76;21036;-50
2022/03/04 05:03:59;;;;;;;8.83;5.62;;;5.00;88.20;;;;;;1872904;76;21013;-49
2022/03/04 05:06:28;;;;;;;16.62;8.85;;;5.00;88.40;;;;;;1872897;76;21008;-51
2022/03/04 05:08:58;;;;;;;11.45;8.85;;;5.00;88.80;;;;;;1872818;75;21028;-51
2022/03/04 05:11:27;;;;;;;13.93;10.58;;;5.00;86.80;;;;;;1872979;77;21028;-52
2022/03/04 05:13:57;;;;;;;8.10;4.78;;;4.90;86.90;;;;;;1872990;76;21166;-50
2022/03/04 05:16:26;;;;;;;8.85;5.75;;;4.90;86.30;;;;;;1872891;76;21072;-49
2022/03/04 05:18:56;;;;;;;7.72;4.85;;;4.80;85.60;;;;;;1872979;77;21091;-51
2022/03/04 05:21:25;;;;;;;7.62;4.53;;;4.80;85.90;;;;;;1872867;77;21024;-51
2022/03/04 05:24:00;;;;;;;12.60;9.83;;;4.80;86.50;;;;;;1872900;77;21106;-51
2022/03/04 05:26:32;;;;;;;9.18;7.35;;;4.80;87.30;;;;;;1873011;75;21046;-50
2022/03/04 05:29:02;;;;;;;12.63;10.15;;;4.80;87.50;;;;;;1872840;76;21025;-50
2022/03/04 05:31:32;;;;;;;10.50;6.65;;;4.80;87.40;;;;;;1873033;77;21082;-49
2022/03/04 05:34:01;;;;;;;10.78;6.95;;;4.80;87.10;;;;;;1872826;75;21033;-50
2022/03/04 05:36:30;;;;;;;12.25;7.75;;;4.80;87.30;;;;;;1872978;76;21028;-49
2022/03/04 05:38:59;;;;;;;6.03;4.67;;;4.80;87.50;;;;;;1872947;77;21005;-50
2022/03/04 05:41:29;;;;;;;8.10;6.62;;;4.80;87.80;;;;;;1873100;75;21443;-50
2022/03/04 05:43:59;;;;;;;11.75;6.47;;;4.80;87.80;;;;;;1872914;76;21086;-49
2022/03/04 05:46:29;;;;;;;10.82;6.83;;;4.90;88.20;;;;;;1872837;77;21053;-48
2022/03/04 05:48:58;;;;;;;5.92;5.33;;;4.90;87.50;;;;;;1872929;76;21491;-51
2022/03/04 05:51:28;;;;;;;8.00;5.72;;;4.90;86.70;;;;;;1872840;75;21033;-52
2022/03/04 05:53:57;;;;;;;11.75;7.72;;;4.90;86.90;;;;;;1872942;76;21103;-51
2022/03/04 05:56:26;;;;;;;9.03;7.00;;;4.90;87.30;;;;;;1872913;77;21158;-50
2022/03/04 05:58:56;;;;;;;9.83;6.58;;;4.90;87.50;;;;;;1873000;77;21103;-50
2022/03/04 06:01:25;;;;;;;7.90;5.03;;;4.90;87.40;;;;;;1873756;76;21012;-52
2022/03/04 06:03:54;;;;;;;7.95;5.55;;;5.00;87.60;;;;;;1882391;76;21044;-52
2022/03/04 06:06:25;;;;;;;10.15;7.25;;;5.00;87.40;;;;;;1882442;76;21028;-51
2022/03/04 06:08:54;;;;;;;14.38;6.33;;;5.00;87.80;;;;;;1882405;75;21036;-50
2022/03/04 06:11:23;;;;;;;6.08;5.05;;;5.10;88.00;;;;;;1882292;76;21025;-52
2022/03/04 06:13:52;;;;;;;8.95;5.72;;;5.20;87.40;;;;;;1882190;76;21094;-49
2022/03/04 06:16:22;;;;;;;6.28;4.58;;;5.20;86.90;;;;;;1882198;76;21044;-52
2022/03/04 06:18:52;;;;;;;5.50;4.47;;;5.30;86.40;;;;;;1882222;76;21110;-50
2022/03/04 06:21:22;;;;;;;5.80;4.75;;;5.30;84.80;;;;;;1882277;76;21048;-51
2022/03/04 06:23:51;;;;;;;6.90;4.03;;;5.30;86.00;;;;;;1882202;75;21091;-50
2022/03/04 06:26:20;;;;;;;10.38;6.67;;;5.30;85.80;;;;;;1882211;76;21028;-50
2022/03/04 06:28:50;;;;;;;6.35;4.45;;;5.30;85.30;;;;;;1882176;75;21044;-51
2022/03/04 06:31:19;;;;;;;7.65;4.28;;;5.30;84.10;;;;;;1882349;76;21040;-48
2022/03/04 06:33:48;;;;;;;8.05;6.00;;;5.40;82.90;;;;;;1882250;76;21106;-50
2022/03/04 06:36:17;;;;;;;9.58;4.60;;;5.40;83.60;;;;;;1882208;76;21098;-48
2022/03/04 06:38:47;;;;;;;6.75;4.72;;;5.40;82.30;;;;;;1882224;76;21141;-49
2022/03/04 06:41:16;;;;;;;8.85;5.37;;;5.40;81.00;;;;;;1882324;76;21028;-48
2022/03/04 06:43:45;;;;;;;7.97;5.58;;;5.40;81.60;;;;;;1882247;76;21028;-50
2022/03/04 06:46:15;;;;;;;6.47;4.10;;;5.40;82.00;;;;;;1882360;75;21098;-52
2022/03/04 06:48:45;;;;;;;3.37;2.80;;;5.40;82.20;;;;;;1882181;76;21144;-50
2022/03/04 06:51:14;;;;;;;7.85;4.60;;;5.50;80.00;;;;;;1882190;76;21127;-50
2022/03/04 06:53:44;;;;;;;7.80;6.22;;;5.40;80.10;;;;;;1882329;76;21114;-50
2022/03/04 06:56:15;;;;;;;5.87;4.42;;;5.50;79.90;;;;;;1882204;75;21106;-49
2022/03/04 06:58:44;;;;;;;6.22;5.00;;;5.50;77.90;;;;;;1882350;76;21459;-49
2022/03/04 07:01:14;;;;;;;5.47;4.25;;;5.50;77.20;;;;;;1882251;76;21032;-48
2022/03/04 07:03:43;;;;;;;9.20;4.60;;;5.40;77.20;;;;;;1874835;76;21036;-49
2022/03/04 07:06:12;;;;;;;4.92;3.92;;;5.40;77.80;;;;;;1872781;77;21102;-50
2022/03/04 07:08:42;;;;;;;4.10;3.17;;;5.40;78.20;;;;;;1872723;75;21094;-48
2022/03/04 07:11:11;;;;;;;7.20;4.33;;;5.50;77.60;;;;;;1872761;77;21008;-49
2022/03/04 07:13:40;;;;;;;5.35;3.90;;;5.50;78.60;;;;;;1872733;76;21095;-48
2022/03/04 07:16:10;;;;;;;4.12;3.52;;;5.50;77.80;;;;;;1872707;77;21028;-48
2022/03/04 07:18:39;;;;;;;6.67;4.62;;;5.50;78.60;;;;;;1872719;75;21009;-49
2022/03/04 07:21:09;;;;;;;6.83;4.55;;;5.50;78.40;;;;;;1872836;77;21041;-48
2022/03/04 07:23:38;;;;;;;6.37;4.20;;;5.50;78.50;;;;;;1872775;76;21078;-49
2022/03/04 07:26:09;;;;;;;6.95;4.97;;;5.60;77.70;;;;;;1872841;77;21447;-48
2022/03/04 07:28:39;;;;;;;7.92;4.62;;;5.50;77.80;;;;;;1872776;77;21451;-50
2022/03/04 07:31:08;;;;;;;7.03;4.78;;;5.60;77.10;;;;;;1872681;77;21029;-49
2022/03/04 07:33:38;;;;;;;16.95;8.75;;;5.60;77.10;;;;;;1872719;77;21098;-49
2022/03/04 07:36:07;;;;;;;8.38;5.00;;;5.60;79.00;;;;;;1872721;76;21088;-51
2022/03/04 07:38:37;;;;;;;6.05;3.58;;;5.70;79.70;;;;;;1872749;77;21017;-49
2022/03/04 07:41:05;;;;;;;8.40;4.42;;;5.70;79.60;;;;;;1872673;75;21029;-52
2022/03/04 07:43:34;;;;;;;7.80;5.35;;;5.80;79.10;;;;;;1872723;77;21440;-48
2022/03/04 07:46:04;;;;;;;8.43;5.45;;;5.80;76.70;;;;;;1872812;77;21020;-49
2022/03/04 07:48:33;;;;;;;8.45;5.47;;;5.80;78.30;;;;;;1872758;77;21016;-48
2022/03/04 07:51:05;;;;;;;6.65;4.70;;;5.90;78.00;;;;;;1872718;77;21028;-48
2022/03/04 07:53:33;;;;;;;5.00;3.40;;;5.90;78.30;;;;;;1872709;77;21479;-51
2022/03/04 07:56:02;;;;;;;5.75;4.00;;;6.00;78.00;;;;;;1872935;77;21032;-48
2022/03/04 07:58:32;;;;;;;5.83;4.12;;;6.10;78.50;;;;;;1872774;77;21114;-54
2022/03/04 08:01:01;;;;;;;7.97;3.80;;;6.20;78.30;;;;;;1872831;77;21008;-53
2022/03/04 08:03:31;;;;;;;5.08;3.42;;;6.20;78.20;;;;;;1871656;75;21052;-52
2022/03/04 08:06:00;;;;;;;8.28;4.15;;;6.30;77.10;;;;;;1871975;76;21111;-47
2022/03/04 08:08:29;;;;;;;5.75;3.47;;;6.30;76.70;;;;;;1872285;76;21417;-48
2022/03/04 08:10:58;;;;;;;6.08;4.03;;;6.30;76.40;;;;;;1872128;77;21065;-54
2022/03/04 08:13:28;;;;;;;9.58;4.55;;;6.30;77.50;;;;;;1872408;77;21060;-55
2022/03/04 08:15:58;;;;;;;4.92;3.62;;;6.40;76.80;;;;;;1872291;77;21087;-53
2022/03/04 08:18:27;;;;;;;5.58;3.85;;;6.40;76.60;;;;;;1872054;77;21131;-51
2022/03/04 08:20:57;;;;;;;15.55;6.03;;;6.50;75.30;;;;;;1872190;77;21001;-50
2022/03/04 08:23:26;;;;;;;4.08;2.75;;;6.40;75.00;;;;;;1872283;75;21005;-54
2022/03/04 08:25:57;;;;;;;5.33;4.12;;;6.40;74.30;;;;;;1872183;77;21025;-51
2022/03/04 08:28:26;;;;;;;14.00;6.03;;;6.50;75.50;;;;;;1872274;77;21463;-51
2022/03/04 08:30:55;;;;;;;6.65;4.12;;;6.50;76.10;;;;;;1872256;77;21051;-53
2022/03/04 08:33:25;;;;;;;6.53;4.95;;;6.50;73.20;;;;;;1872053;75;21076;-52
2022/03/04 08:35:54;;;;;;;6.20;3.90;;;6.50;73.60;;;;;;1872196;77;21068;-50
2022/03/04 08:38:23;;;;;;;5.42;3.77;;;6.50;74.70;;;;;;1872542;75;21011;-54
2022/03/04 08:40:52;;;;;;;10.60;3.80;;;6.50;73.70;;;;;;1872048;77;21023;-55
2022/03/04 08:43:22;;;;;;;10.93;4.60;;;6.50;74.20;;;;;;1872027;76;21091;-55
2022/03/04 08:45:52;;;;;;;5.92;3.92;;;6.50;74.30;;;;;;1872147;76;21083;-51
2022/03/04 08:48:23;;;;;;;11.45;3.98;;;6.40;73.40;;;;;;1872026;77;21039;-53
2022/03/04 08:50:52;;;;;;;15.53;4.40;;;6.40;73.50;;;;;;1872231;77;21473;-52
2022/03/04 08:53:21;;;;;;;5.62;4.40;;;6.50;74.40;;;;;;1872020;77;21147;-55
2022/03/04 08:55:50;;;;;;;8.50;4.00;;;6.50;74.20;;;;;;1872057;77;21092;-53
2022/03/04 08:58:20;;;;;;;7.03;4.58;;;6.60;74.50;;;;;;1872081;76;21035;-52
2022/03/04 09:00:49;;;;;;;10.98;4.08;;;6.80;72.30;;;;;;1872132;77;21031;-52
2022/03/04 09:03:18;;;;;;;6.35;4.55;;;6.90;74.30;;;;;;1871975;75;21062;-49
2022/03/04 09:05:48;;;;;;;8.50;4.25;;;7.00;73.20;;;;;;1872201;76;21015;-50
2022/03/04 09:08:17;;;;;;;8.53;3.17;;;7.00;73.00;;;;;;1872077;77;21023;-54
2022/03/04 09:10:46;;;;;;;6.45;4.20;;;7.10;70.10;;;;;;1871996;77;21089;-56
2022/03/04 09:13:16;;;;;;;4.22;3.50;;;7.10;72.10;;;;;;1872258;77;21031;-55
2022/03/04 09:15:45;;;;;;;6.58;4.08;;;7.10;71.20;;;;;;1872069;77;21101;-53
2022/03/04 09:18:14;;;;;;;6.15;3.35;;;7.10;71.50;;;;;;1872050;76;21047;-52
2022/03/04 09:20:43;;;;;;;8.48;3.33;;;7.30;71.80;;;;;;1873138;75;21086;-54
2022/03/04 09:23:13;;;;;;;3.90;2.10;;;7.30;71.00;;;;;;1871914;75;21093;-52
2022/03/04 09:25:42;;;;;;;5.62;3.77;;;7.40;70.60;;;;;;1872110;76;21085;-48
2022/03/04 09:28:11;;;;;;;5.75;3.22;;;7.40;71.20;;;;;;1871996;75;21086;-51
2022/03/04 09:30:41;;;;;;;2.75;2.25;;;7.50;70.10;;;;;;1872171;76;21049;-54
2022/03/04 09:33:11;;;;;;;4.37;3.55;;;7.50;68.20;;;;;;1871719;77;21089;-52
2022/03/04 09:35:40;;;;;;;4.17;3.10;;;7.50;68.30;;;;;;1872107;75;21513;-54
2022/03/04 09:38:10;;;;;;;4.00;3.27;;;7.50;68.80;;;;;;1872206;75;21007;-52
2022/03/04 09:40:39;;;;;;;4.42;2.72;;;7.40;67.70;;;;;;1872147;76;21019;-52
2022/03/04 09:43:10;;;;;;;5.20;2.75;;;7.40;67.70;;;;;;1872110;75;21104;-53
2022/03/04 09:45:39;;;;;;;5.17;3.37;;;7.30;67.70;;;;;;1872281;75;21031;-52
2022/03/04 09:48:11;;;;;;;5.75;3.27;;;7.20;68.00;;;;;;1872081;77;21070;-52
2022/03/04 09:50:44;;;;;;;5.67;3.40;;;7.20;68.30;;;;;;1872136;76;21085;-53
2022/03/04 09:53:13;;;;;;;5.60;3.27;;;7.10;68.80;;;;;;1872415;75;21094;-52
2022/03/04 09:55:43;;;;;;;3.58;2.75;;;7.10;69.80;;;;;;1872121;76;21013;-53
2022/03/04 09:58:17;;;;;;;5.15;3.70;;;7.10;68.70;;;;;;1872091;75;21084;-53
2022/03/04 10:00:47;;;;;;;10.07;3.27;;;7.10;69.30;;;;;;1872413;75;21009;-49
2022/03/04 10:03:35;;;;;;;4.75;3.27;;;7.10;69.30;;;;;;1871986;76;21056;-53
2022/03/04 10:06:05;;;;;;;19.12;3.80;;;7.00;69.10;;;;;;1872220;75;21182;-54
2022/03/04 10:08:42;;;;;;;6.28;4.00;;;7.00;69.30;;;;;;1871942;75;21032;-52
2022/03/04 10:11:13;;;;;;;7.75;4.35;;;7.00;69.60;;;;;;1871890;75;21068;-54
2022/03/04 10:13:47;;;;;;;5.92;3.47;;;7.00;69.70;;;;;;1872141;76;21009;-54
2022/03/04 10:16:25;;;;;;;5.83;3.12;;;7.10;70.10;;;;;;1872101;75;21021;-51
2022/03/04 10:19:13;;;;;;;3.12;2.65;;;7.10;70.20;;;;;;1872103;76;21528;-55
2022/03/04 10:21:57;;;;;;;8.13;2.70;;;7.10;71.30;;;;;;1872144;75;21145;-53
2022/03/04 10:24:41;;;;;;;5.42;3.20;;;7.10;71.10;;;;;;1871848;75;21100;-47
2022/03/04 10:27:15;;;;;;;7.45;3.27;;;7.20;70.90;;;;;;1872152;76;21071;-47
2022/03/04 10:29:49;;;;;;;10.88;4.20;;;7.30;69.70;;;;;;1872195;75;21086;-48
2022/03/04 10:32:30;;;;;;;6.37;2.50;;;7.30;69.70;;;;;;1872094;75;21022;-47
2022/03/04 10:34:58;;;;;;;5.42;3.40;;;7.40;68.40;;;;;;1871302;75;21025;-52
2022/03/04 10:37:52;;;;;;;4.78;2.98;;;7.40;68.60;;;;;;1872098;77;21130;-50
2022/03/04 10:40:25;;;;;;;7.62;4.30;;;7.50;69.70;;;;;;1872008;75;21104;-50
2022/03/04 10:42:56;;;;;;;3.42;3.02;;;7.60;70.80;;;;;;1872150;76;21506;-48
2022/03/04 10:45:31;;;;;;;6.33;3.22;;;7.70;70.20;;;;;;1871967;75;21037;-51
2022/03/04 10:48:11;;;;;;;4.97;3.20;;;7.80;70.20;;;;;;1872364;76;21142;-49
2022/03/04 10:50:46;;;;;;;5.35;3.25;;;7.90;69.30;;;;;;1872213;77;21099;-47
2022/03/04 10:53:18;;;;;;;3.65;3.08;;;7.90;68.30;;;;;;1872119;75;21032;-52
2022/03/04 10:55:51;;;;;;;6.42;4.28;;;7.90;68.70;;;;;;1872141;77;21004;-47
2022/03/04 10:58:23;;;;;;;6.30;3.33;;;7.80;68.80;;;;;;1872337;76;21084;-53
2022/03/04 11:00:58;;;;;;;6.17;3.45;;;7.80;67.30;;;;;;1871678;76;21045;-52
2022/03/04 11:03:29;;;;;;;8.25;2.87;;;7.80;67.20;;;;;;1872202;75;21142;-54
2022/03/04 11:06:00;;;;;;;5.08;2.92;;;7.80;66.30;;;;;;1872007;75;21068;-51
2022/03/04 11:08:29;;;;;;;4.85;2.85;;;7.80;67.30;;;;;;1872215;75;21158;-51
2022/03/04 11:10:59;;;;;;;5.72;3.12;;;7.70;67.30;;;;;;1872172;75;21146;-51
2022/03/04 11:13:34;;;;;;;5.67;2.98;;;7.80;67.60;;;;;;1872107;75;21076;-54
2022/03/04 11:16:05;;;;;;;4.03;2.80;;;7.80;68.00;;;;;;1872017;77;21037;-54
2022/03/04 11:18:35;;;;;;;3.17;2.62;;;7.80;67.60;;;;;;1872302;75;21139;-51
2022/03/04 11:21:05;;;;;;;3.67;2.92;;;7.80;66.50;;;;;;1872063;77;21108;-50
2022/03/04 11:23:37;;;;;;;3.83;3.12;;;7.90;67.40;;;;;;1872021;75;21029;-51
2022/03/04 11:26:08;;;;;;;7.67;3.80;;;7.90;67.50;;;;;;1872364;76;21080;-50
2022/03/04 11:28:40;;;;;;;6.65;3.67;;;7.90;67.40;;;;;;1872167;76;21029;-53
2022/03/04 11:31:11;;;;;;;4.28;2.67;;;7.90;67.70;;;;;;1872171;76;21072;-47
2022/03/04 11:33:49;;;;;;;10.40;3.60;;;7.80;67.80;;;;;;1872796;76;21048;-46
2022/03/04 11:36:25;;;;;;;3.67;2.12;;;7.80;68.90;;;;;;1872789;75;21013;-54
2022/03/04 11:39:15;;;;;;;9.65;3.87;;;7.80;69.00;;;;;;1872719;76;21126;-54
2022/03/04 11:41:50;;;;;;;2.70;2.40;;;7.80;69.20;;;;;;1872703;75;21086;-54
2022/03/04 11:44:22;;;;;;;5.05;3.37;;;7.80;68.20;;;;;;1872775;75;21060;-53
2022/03/04 11:47:01;;;;;;;8.18;4.40;;;7.80;68.80;;;;;;1872923;77;21032;-54
2022/03/04 11:49:35;;;;;;;7.50;3.58;;;7.80;68.60;;;;;;1872721;75;21118;-52
2022/03/04 11:52:19;;;;;;;4.87;3.37;;;7.70;68.90;;;;;;1872423;76;21545;-52
2022/03/04 11:54:45;;;;;;;10.60;3.95;;;7.60;68.20;;;;;;1872339;76;21106;-54
2022/03/04 11:57:29;;;;;;;12.80;4.28;;;7.60;68.80;;;;;;1871380;77;21084;-53
2022/03/04 12:00:14;;;;;;;10.30;4.15;;;7.60;67.40;;;;;;1878006;74;21035;-55
2022/03/04 12:02:48;;;;;;;4.47;2.92;;;7.60;68.30;;;;;;1871087;74;21566;-53
2022/03/04 12:05:30;;;;;;;7.22;3.87;;;7.50;66.00;;;;;;1893405;73;21073;-52
2022/03/04 12:08:03;;;;;;;7.10;3.60;;;7.60;68.30;;;;;;1942948;74;21093;-51
2022/03/04 12:10:36;;;;;;;3.67;2.77;;;7.60;69.00;;;;;;1944553;73;21043;-52
2022/03/04 12:13:23;;;;;;;3.77;3.12;;;7.70;66.30;;;;;;1945274;74;21019;-52
2022/03/04 12:15:58;;;;;;;9.48;2.65;;;7.70;66.00;;;;;;1945196;74;21006;-52
2022/03/04 12:18:30;;;;;;;6.40;3.00;;;7.70;65.00;;;;;;1945541;73;21081;-54
2022/03/04 12:21:26;;;;;;;6.28;2.45;;;7.60;63.70;;;;;;1944915;74;21106;-53
2022/03/04 12:24:00;;;;;;;5.03;3.27;;;7.50;65.10;;;;;;1945342;74;21039;-54
2022/03/04 12:26:38;;;;;;;6.95;2.95;;;7.40;64.20;;;;;;1945404;74;21066;-52
2022/03/04 12:29:15;;;;;;;3.92;2.75;;;7.30;64.90;;;;;;1945147;74;21007;-53
2022/03/04 12:31:45;;;;;;;10.48;2.80;;;7.30;64.00;;;;;;1945126;74;21015;-53
2022/03/04 12:34:20;;;;;;;9.80;3.25;;;7.20;64.50;;;;;;1945183;74;21022;-52
2022/03/04 12:36:52;;;;;;;9.23;2.30;;;7.20;65.00;;;;;;1945348;74;21015;-51
2022/03/04 12:39:22;;;;;;;5.12;3.05;;;7.10;65.00;;;;;;1917159;73;21068;-52
2022/03/04 12:41:56;;;;;;;4.42;1.67;;;7.10;64.50;;;;;;1914640;75;21049;-53
2022/03/04 12:44:30;;;;;;;3.25;2.72;;;7.10;64.00;;;;;;1914794;75;21080;-51
2022/03/04 12:47:00;;;;;;;6.17;2.33;;;7.10;63.50;;;;;;1914857;75;21582;-50
2022/03/04 12:49:31;;;;;;;2.55;1.85;;;7.10;65.60;;;;;;1914643;74;21010;-53
2022/03/04 12:52:01;;;;;;;4.03;2.30;;;7.10;64.80;;;;;;1914505;74;21026;-53
2022/03/04 12:54:33;;;;;;;3.95;1.77;;;7.10;65.10;;;;;;1914691;75;21061;-51
2022/03/04 12:57:06;;;;;;;4.37;2.30;;;7.10;66.10;;;;;;1913254;75;21108;-50
2022/03/04 12:59:47;;;;;;;4.80;2.52;;;7.10;66.10;;;;;;1914044;75;21030;-52
2022/03/04 13:02:16;;;;;;;10.68;3.40;;;7.10;66.60;;;;;;1896234;75;21022;-51
2022/03/04 13:05:02;;;;;;;4.50;2.27;;;7.20;66.40;;;;;;1882240;76;21077;-51
2022/03/04 13:07:35;;;;;;;5.90;4.00;;;7.10;66.20;;;;;;1873856;75;21136;-49
2022/03/04 13:10:07;;;;;;;5.92;3.20;;;7.10;67.20;;;;;;1873538;75;21559;-52
2022/03/04 13:12:37;;;;;;;9.40;4.65;;;7.10;67.00;;;;;;1888759;75;21466;-53
2022/03/04 13:15:11;;;;;;;4.85;3.33;;;7.10;67.70;;;;;;1890681;75;21145;-55